Caribe Rosa — D5MR2 — position and weather

sailwx.info

Track history (hours):
 
Tides and Currents Weather Stations Pressure Air Temp Water Temp Dewpoint Dewpoint Depression Visibility Wind Speed Wind Dir Waves Ship Positions

Caribe Rosa

Last reported at 2017-Sep-26 21:30 UTC. Time now 2017-Sep-26 21:51 UTC.
Position N 19°16' W 096°00'.

Length 118 m; draft 9.3 m.

Type: Ship (hazmat cat A). MMSI: 636017776.

Date/timePositionNaut miles runAvg speedWind from/ knotsBaromVisibWave heightAir tempDewpointWater temp
2017-Sep-26 21:30N 19°16' W 096°00'510.8
2017-Sep-26 21:00N 19°21' W 096°00'510.9
2017-Sep-26 20:30N 19°27' W 095°60'510.8
2017-Sep-26 20:00N 19°32' W 095°59'510.8
2017-Sep-26 19:30N 19°37' W 095°58'  
2017-Sep-24 12:00N 29°29' W 094°51'611.4
2017-Sep-24 11:30N 29°33' W 094°55'611.4
2017-Sep-24 11:00N 29°38' W 094°58'510.3
2017-Sep-24 10:30N 29°43' W 095°01'4 7.4
2017-Sep-24 10:00N 29°45' W 095°04'  
2017-Sep-21 23:11N 29°45' W 095°17'0 0.0
2017-Sep-21 22:57N 29°45' W 095°17'0 0.6
2017-Sep-21 22:30N 29°45' W 095°17'2 4.7
2017-Sep-21 21:59N 29°43' W 095°15'3 5.7
2017-Sep-21 21:30N 29°44' W 095°12'3 6.6
2017-Sep-21 21:00N 29°44' W 095°08'3 7.1
2017-Sep-21 20:30N 29°46' W 095°05'5 9.8
2017-Sep-21 20:00N 29°42' W 095°01'510.4
2017-Sep-21 19:30N 29°38' W 094°58'612.2
2017-Sep-21 19:00N 29°32' W 094°54'612.6
2017-Sep-21 18:30N 29°27' W 094°50'  
Track history (hours):
 
Tides and Currents Weather Stations Pressure Air Temp Water Temp Dewpoint Dewpoint Depression Visibility Wind Speed Wind Dir Waves Ship Positions

Caribe Rosa

Last reported at 2017-Sep-26 21:30 UTC. Time now 2017-Sep-26 21:51 UTC.
Position N 19°16' W 096°00'.

Length 118 m; draft 9.3 m.

Type: Ship (hazmat cat A). MMSI: 636017776.

Date/timePositionNaut miles runAvg speedWind from/ knotsBaromVisibWave heightAir tempDewpointWater temp
2017-Sep-26 21:30N 19°16' W 096°00'510.8
2017-Sep-26 21:00N 19°21' W 096°00'510.9
2017-Sep-26 20:30N 19°27' W 095°60'510.8
2017-Sep-26 20:00N 19°32' W 095°59'510.8
2017-Sep-26 19:30N 19°37' W 095°58'  
2017-Sep-24 12:00N 29°29' W 094°51'611.4
2017-Sep-24 11:30N 29°33' W 094°55'611.4
2017-Sep-24 11:00N 29°38' W 094°58'510.3
2017-Sep-24 10:30N 29°43' W 095°01'4 7.4
2017-Sep-24 10:00N 29°45' W 095°04'  
2017-Sep-21 23:11N 29°45' W 095°17'0 0.0
2017-Sep-21 22:57N 29°45' W 095°17'0 0.6
2017-Sep-21 22:30N 29°45' W 095°17'2 4.7
2017-Sep-21 21:59N 29°43' W 095°15'3 5.7
2017-Sep-21 21:30N 29°44' W 095°12'3 6.6
2017-Sep-21 21:00N 29°44' W 095°08'3 7.1
2017-Sep-21 20:30N 29°46' W 095°05'5 9.8
2017-Sep-21 20:00N 29°42' W 095°01'510.4
2017-Sep-21 19:30N 29°38' W 094°58'612.2
2017-Sep-21 19:00N 29°32' W 094°54'612.6
2017-Sep-21 18:30N 29°27' W 094°50'  

Dump ship's entire track history